createdAt,value
2018-03-27T00:00:19.407Z,2
2018-03-27T00:02:19.142Z,2
2018-03-27T00:04:18.887Z,2.1
2018-03-27T00:06:19.490Z,2
2018-03-27T00:08:19.251Z,2.6
2018-03-27T00:10:18.541Z,2
2018-03-27T00:12:19.314Z,2.3
2018-03-27T00:14:19.070Z,2.7
2018-03-27T00:16:18.636Z,3.4
2018-03-27T00:18:19.473Z,3
2018-03-27T00:20:19.238Z,2.5
2018-03-27T00:22:18.984Z,2.6
2018-03-27T00:24:18.768Z,2.6
2018-03-27T00:26:19.371Z,2.6
2018-03-27T00:28:19.122Z,2.9
2018-03-27T00:30:18.852Z,2
2018-03-27T00:32:18.633Z,2.3
2018-03-27T00:34:19.412Z,2.3
2018-03-27T00:36:18.962Z,3.3
2018-03-27T00:38:18.739Z,2.5
2018-03-27T00:40:18.960Z,3.2
2018-03-27T00:42:18.723Z,2.9
2018-03-27T00:44:19.483Z,2.5
2018-03-27T00:46:19.131Z,3.1
2018-03-27T00:48:18.862Z,2.4
2018-03-27T00:50:18.631Z,2.8
2018-03-27T00:52:19.372Z,2.4
2018-03-27T00:54:19.141Z,3.4
2018-03-27T00:56:18.634Z,2.3
2018-03-27T00:58:19.384Z,3.2
2018-03-27T01:00:19.214Z,2
2018-03-27T01:02:18.972Z,2.1
2018-03-27T01:04:18.737Z,2.8
2018-03-27T01:06:19.041Z,2.1
2018-03-27T01:08:18.773Z,2.5
2018-03-27T01:10:19.031Z,1.7
2018-03-27T01:12:18.802Z,1.5
2018-03-27T01:14:18.571Z,1.8
2018-03-27T01:16:18.676Z,1.6
2018-03-27T01:18:18.523Z,2.1
2018-03-27T01:20:19.328Z,2.1
2018-03-27T01:22:19.092Z,2.7
2018-03-27T01:24:18.837Z,2.7
2018-03-27T01:26:19.438Z,2.5
2018-03-27T01:28:19.192Z,3.3
2018-03-27T01:30:19.050Z,2.7
2018-03-27T01:32:18.808Z,1.9
2018-03-27T01:34:18.580Z,2.8
2018-03-27T01:36:19.159Z,3.3
2018-03-27T01:38:18.910Z,3.1
2018-03-27T01:40:19.111Z,3
2018-03-27T01:42:18.850Z,2.9
2018-03-27T01:44:18.606Z,2.8
2018-03-27T01:46:18.650Z,2.6
2018-03-27T01:48:19.381Z,3.3
2018-03-27T01:50:19.175Z,3.1
2018-03-27T01:52:18.946Z,3.4
2018-03-27T01:54:18.698Z,3.8
2018-03-27T01:56:19.299Z,3.6
2018-03-27T01:58:19.076Z,3.9
2018-03-27T02:00:18.868Z,3.9
2018-03-27T02:02:18.653Z,3.8
2018-03-27T02:04:19.444Z,4
2018-03-27T02:06:18.995Z,3.8
2018-03-27T02:08:18.733Z,4.4
2018-03-27T02:10:18.982Z,4.2
2018-03-27T02:12:18.759Z,4.2
2018-03-27T02:14:18.569Z,4
2018-03-27T02:16:18.613Z,4.1
2018-03-27T02:18:19.459Z,3.5
2018-03-27T02:20:19.275Z,4.5
2018-03-27T02:22:19.024Z,3.4
2018-03-27T02:24:18.770Z,4.1
2018-03-27T02:26:19.268Z,4.2
2018-03-27T02:28:19.027Z,3.4
2018-03-27T02:30:18.771Z,3.7
2018-03-27T02:32:18.557Z,3
2018-03-27T02:34:19.329Z,4.8
2018-03-27T02:36:18.494Z,3.9
2018-03-27T02:38:19.247Z,4.1
2018-03-27T02:40:19.533Z,4
2018-03-27T02:42:19.291Z,3.9
2018-03-27T02:44:19.050Z,4.3
2018-03-27T02:46:18.641Z,3.7
2018-03-27T02:48:19.373Z,3.1
2018-03-27T02:50:19.197Z,3
2018-03-27T02:52:18.956Z,3.7
2018-03-27T02:54:18.695Z,4
2018-03-27T02:56:18.795Z,3.8
2018-03-27T02:58:18.548Z,3.9
2018-03-27T03:00:19.323Z,4.2
2018-03-27T03:02:19.097Z,3.9
2018-03-27T03:04:18.856Z,4.3
2018-03-27T03:06:18.486Z,3.4
2018-03-27T03:08:19.250Z,5.3
2018-03-27T03:10:18.517Z,4.3
2018-03-27T03:12:19.324Z,3.7
2018-03-27T03:14:19.079Z,5.1
2018-03-27T03:16:19.138Z,5
2018-03-27T03:18:18.968Z,5.3
2018-03-27T03:20:18.723Z,5.3
2018-03-27T03:22:18.500Z,4.9
2018-03-27T03:24:19.235Z,4.5
2018-03-27T03:26:18.801Z,5.7
2018-03-27T03:28:18.568Z,4.5
2018-03-27T03:30:19.411Z,5.1
2018-03-27T03:32:19.208Z,4.3
2018-03-27T03:34:18.967Z,5.3
2018-03-27T03:36:18.550Z,6
2018-03-27T03:38:19.293Z,5.8
2018-03-27T03:40:18.531Z,5.4
2018-03-27T03:42:19.304Z,5.5
2018-03-27T03:44:19.050Z,5.7
2018-03-27T03:46:19.133Z,5
2018-03-27T03:48:18.900Z,6.1
2018-03-27T03:50:18.632Z,4.9
2018-03-27T03:52:19.397Z,5.2
2018-03-27T03:54:19.160Z,5.8
2018-03-27T03:56:18.680Z,6.1
2018-03-27T03:58:19.463Z,5.8
2018-03-27T04:00:19.290Z,5.9
2018-03-27T04:02:19.110Z,6.8
2018-03-27T04:04:18.847Z,5.3
2018-03-27T04:06:19.366Z,5.7
2018-03-27T04:08:19.112Z,5.8
2018-03-27T04:10:19.368Z,5.5
2018-03-27T04:12:19.126Z,6.1
2018-03-27T04:14:18.882Z,7.1
2018-03-27T04:16:18.523Z,5.9
2018-03-27T04:18:18.513Z,8.3
2018-03-27T04:20:19.278Z,7
2018-03-27T04:22:19.062Z,6.6
2018-03-27T04:24:18.829Z,7.2
2018-03-27T04:26:19.410Z,7.4
2018-03-27T04:28:19.163Z,8.4
2018-03-27T04:30:18.929Z,6.5
2018-03-27T04:32:18.660Z,6.8
2018-03-27T04:34:19.386Z,8
2018-03-27T04:36:19.259Z,7.1
2018-03-27T04:38:19.057Z,7
2018-03-27T04:40:19.283Z,7.4
2018-03-27T04:42:19.389Z,7
2018-03-27T04:44:19.132Z,7.7
2018-03-27T04:46:18.868Z,7.2
2018-03-27T04:48:18.618Z,8.7
2018-03-27T04:50:19.368Z,9.4
2018-03-27T04:52:19.143Z,7.1
2018-03-27T04:54:18.917Z,8.2
2018-03-27T04:56:18.475Z,8.8
2018-03-27T04:58:19.218Z,8.2
2018-03-27T05:00:19.005Z,7.7
2018-03-27T05:02:18.773Z,8.4
2018-03-27T05:04:18.576Z,8.4
2018-03-27T05:06:19.079Z,10
2018-03-27T05:08:18.844Z,8.7
2018-03-27T05:10:19.097Z,7.6
2018-03-27T05:12:18.844Z,7.1
2018-03-27T05:14:18.603Z,8.3
2018-03-27T05:16:19.114Z,8.7
2018-03-27T05:18:18.953Z,8.1
2018-03-27T05:20:18.727Z,8.9
2018-03-27T05:22:18.495Z,9.5
2018-03-27T05:24:19.254Z,9
2018-03-27T05:26:18.937Z,9.4
2018-03-27T05:28:18.677Z,9.2
2018-03-27T05:30:19.432Z,8.6
2018-03-27T05:32:19.179Z,7.1
2018-03-27T05:34:18.930Z,8.2
2018-03-27T05:36:18.541Z,9.2
2018-03-27T05:38:19.298Z,8.9
2018-03-27T05:40:18.522Z,9.8
2018-03-27T05:42:19.292Z,8.7
2018-03-27T05:44:19.040Z,9.6
2018-03-27T05:46:19.172Z,8.1
2018-03-27T05:48:18.953Z,8.3
2018-03-27T05:50:18.718Z,9.5
2018-03-27T05:52:18.508Z,8.4
2018-03-27T05:54:19.260Z,9.8
2018-03-27T05:56:18.860Z,8.2
2018-03-27T05:58:18.629Z,8.2
2018-03-27T06:00:19.379Z,8.3
2018-03-27T06:02:19.131Z,9.9
2018-03-27T06:04:18.897Z,9
2018-03-27T06:06:18.493Z,10.1
2018-03-27T06:08:19.262Z,10.5
2018-03-27T06:10:18.490Z,9.4
2018-03-27T06:12:19.247Z,8.5
2018-03-27T06:14:18.972Z,8.5
2018-03-27T06:16:19.024Z,10.1
2018-03-27T06:18:18.883Z,8.6
2018-03-27T06:20:18.622Z,9.1
2018-03-27T06:22:19.369Z,8.9
2018-03-27T06:24:19.114Z,9.3
2018-03-27T06:26:19.383Z,8.1
2018-03-27T06:28:19.144Z,10.9
2018-03-27T06:30:18.897Z,9.7
2018-03-27T06:32:18.649Z,9
2018-03-27T06:34:19.387Z,9.3
2018-03-27T06:36:19.440Z,9.7
2018-03-27T06:38:19.186Z,8.6
2018-03-27T06:40:19.437Z,9.6
2018-03-27T06:42:19.222Z,9.8
2018-03-27T06:44:19.096Z,9.5
2018-03-27T06:46:18.610Z,9.7
2018-03-27T06:48:19.345Z,9.5
2018-03-27T06:50:19.147Z,9.4
2018-03-27T06:52:18.874Z,8.9
2018-03-27T06:54:18.600Z,9.7
2018-03-27T06:56:18.664Z,9.2
2018-03-27T06:58:19.412Z,8.2
2018-03-27T07:00:19.176Z,9.5
2018-03-27T07:02:18.928Z,7.7
2018-03-27T07:04:18.689Z,8.4
2018-03-27T07:06:19.277Z,7.9
2018-03-27T07:08:19.000Z,8.3
2018-03-27T07:10:19.203Z,9.3
2018-03-27T07:12:18.933Z,7.9
2018-03-27T07:14:18.685Z,8
2018-03-27T07:16:18.725Z,8.2
2018-03-27T07:18:18.522Z,7.6
2018-03-27T07:20:19.281Z,8.2
2018-03-27T07:22:19.075Z,6.7
2018-03-27T07:24:18.821Z,6.9
2018-03-27T07:26:19.293Z,7.4
2018-03-27T07:28:19.040Z,7.2
2018-03-27T07:30:18.817Z,7.4
2018-03-27T07:32:18.559Z,7.2
2018-03-27T07:34:19.284Z,6.2
2018-03-27T07:36:18.765Z,5.7
2018-03-27T07:38:18.489Z,7
2018-03-27T07:40:18.695Z,6.8
2018-03-27T07:42:19.421Z,6.6
2018-03-27T07:44:19.172Z,6.7
2018-03-27T07:46:18.763Z,6.8
2018-03-27T07:48:18.491Z,8.1
2018-03-27T07:50:19.227Z,6.9
2018-03-27T07:52:18.946Z,7.3
2018-03-27T07:54:18.671Z,7.1
2018-03-27T07:56:19.216Z,5.8
2018-03-27T07:58:18.972Z,5.4
2018-03-27T08:00:18.816Z,5.5
2018-03-27T08:02:18.557Z,5.7
2018-03-27T08:04:19.302Z,6.6
2018-03-27T08:06:18.763Z,5.9
2018-03-27T08:08:18.490Z,5.7
2018-03-27T08:10:18.689Z,6.1
2018-03-27T08:12:19.421Z,5.6
2018-03-27T08:14:19.150Z,5.5
2018-03-27T08:16:19.170Z,4.9
2018-03-27T08:18:18.968Z,4.8
2018-03-27T08:20:18.716Z,5.2
2018-03-27T08:22:19.437Z,6.2
2018-03-27T08:24:19.215Z,5.9
2018-03-27T08:26:18.927Z,7.3
2018-03-27T08:28:18.649Z,6.4
2018-03-27T08:30:19.404Z,6.5
2018-03-27T08:32:19.152Z,5.3
2018-03-27T08:34:18.880Z,4.2
2018-03-27T08:36:19.361Z,5.3
2018-03-27T08:38:19.246Z,5.9
2018-03-27T08:40:19.462Z,6.5
2018-03-27T08:42:19.191Z,5.4
2018-03-27T08:44:18.921Z,5.7
2018-03-27T08:46:18.923Z,6.3
2018-03-27T08:48:18.670Z,5.9
2018-03-27T08:50:19.409Z,5.3
2018-03-27T08:52:19.134Z,5.6
2018-03-27T08:54:18.875Z,5.7
2018-03-27T08:56:18.926Z,4.5
2018-03-27T08:58:18.661Z,4.3
2018-03-27T09:00:19.409Z,5.4
2018-03-27T09:02:19.145Z,5.4
2018-03-27T09:04:18.886Z,4.6
2018-03-27T09:06:19.008Z,4.4
2018-03-27T09:08:18.798Z,4.5
2018-03-27T09:10:18.998Z,4.4
2018-03-27T09:12:18.729Z,5.1
2018-03-27T09:14:19.453Z,4.7
2018-03-27T09:16:19.424Z,4.1
2018-03-27T09:18:19.227Z,3.5
2018-03-27T09:20:19.024Z,3.9
2018-03-27T09:22:18.768Z,4.3
2018-03-27T09:24:18.506Z,3.9
2018-03-27T09:26:18.965Z,3.9
2018-03-27T09:28:18.714Z,3.5
2018-03-27T09:30:19.499Z,3.3
2018-03-27T09:32:19.236Z,3.9
2018-03-27T09:34:19.006Z,4.2
2018-03-27T09:36:18.520Z,4.6
2018-03-27T09:38:19.267Z,3.9
2018-03-27T09:40:19.499Z,3.7
2018-03-27T09:42:19.405Z,4.5
2018-03-27T09:44:19.148Z,3.5
2018-03-27T09:46:18.647Z,4.1
2018-03-27T09:48:19.371Z,2.8
2018-03-27T09:50:19.108Z,3.4
2018-03-27T09:52:18.852Z,2.9
2018-03-27T09:54:18.594Z,3.1
2018-03-27T09:56:19.111Z,3.4
2018-03-27T09:58:18.857Z,3
2018-03-27T10:00:18.603Z,3.1
2018-03-27T10:02:19.338Z,3.2
2018-03-27T10:04:19.141Z,3.2
2018-03-27T10:06:19.152Z,2.6
2018-03-27T10:08:18.901Z,3.4
2018-03-27T10:10:19.104Z,2.9
2018-03-27T10:12:18.853Z,2.2
2018-03-27T10:14:18.582Z,2.6
2018-03-27T10:16:19.053Z,2.4
2018-03-27T10:18:18.848Z,2.7
2018-03-27T10:20:18.597Z,2.9
2018-03-27T10:22:19.332Z,3.7
2018-03-27T10:24:19.073Z,2.6
2018-03-27T10:26:18.612Z,2.6
2018-03-27T10:28:19.376Z,3.2
2018-03-27T10:30:19.181Z,2.9
2018-03-27T10:32:18.926Z,3.1
2018-03-27T10:34:18.660Z,2.9
2018-03-27T10:36:19.117Z,3
2018-03-27T10:38:18.854Z,2.6
2018-03-27T10:40:19.051Z,2.5
2018-03-27T10:42:18.797Z,2.2
2018-03-27T10:44:18.540Z,1.7
2018-03-27T10:46:18.544Z,2.1
2018-03-27T10:48:19.285Z,2.8
2018-03-27T10:50:19.048Z,2.6
2018-03-27T10:52:18.774Z,2.2
2018-03-27T10:54:18.503Z,2.7
2018-03-27T10:56:19.101Z,3
2018-03-27T10:58:18.845Z,1.7
2018-03-27T11:00:18.603Z,2.8
2018-03-27T11:02:19.355Z,2.1
2018-03-27T11:04:19.104Z,2.1
2018-03-27T11:06:19.270Z,1.8
2018-03-27T11:08:19.042Z,3
2018-03-27T11:10:19.258Z,2.1
2018-03-27T11:12:18.992Z,2.7
2018-03-27T11:14:18.723Z,1.8
2018-03-27T11:16:19.202Z,1.9
2018-03-27T11:18:19.071Z,2.3
2018-03-27T11:20:18.815Z,2
2018-03-27T11:22:18.561Z,2.7
2018-03-27T11:24:19.302Z,2.3
2018-03-27T11:26:18.862Z,2.6
2018-03-27T11:28:18.609Z,1.8
2018-03-27T11:30:19.381Z,2.6
2018-03-27T11:32:19.120Z,1.9
2018-03-27T11:34:18.859Z,2.5
2018-03-27T11:36:18.877Z,2.1
2018-03-27T11:38:18.620Z,1.7
2018-03-27T11:40:18.819Z,2.2
2018-03-27T11:42:18.564Z,2.2
2018-03-27T11:44:19.318Z,2.3
2018-03-27T11:46:19.359Z,1.8
2018-03-27T11:48:19.115Z,1.8
2018-03-27T11:50:18.952Z,1.7
2018-03-27T11:52:19.049Z,1.8
2018-03-27T11:54:18.799Z,2.4
2018-03-27T11:56:19.285Z,2
2018-03-27T11:58:19.032Z,2.1
2018-03-27T12:00:18.840Z,2.4
2018-03-27T12:02:18.582Z,1.9
2018-03-27T12:04:19.328Z,2.6
2018-03-27T12:06:18.854Z,2.1
2018-03-27T12:08:18.592Z,2.1
2018-03-27T12:10:18.799Z,2.5
2018-03-27T12:12:18.578Z,1.6
2018-03-27T12:14:19.343Z,2
2018-03-27T12:16:18.817Z,2.6
2018-03-27T12:18:18.626Z,1.9
2018-03-27T12:20:19.371Z,2.1
2018-03-27T12:22:19.118Z,2.5
2018-03-27T12:24:18.871Z,1.3
2018-03-27T12:26:19.379Z,1.6
2018-03-27T12:28:19.122Z,1.6
2018-03-27T12:30:18.976Z,1.7
2018-03-27T12:32:18.710Z,2
2018-03-27T12:34:19.459Z,1.5
2018-03-27T12:36:18.944Z,1.8
2018-03-27T12:38:18.684Z,2.1
2018-03-27T12:40:18.897Z,1.9
2018-03-27T12:42:18.678Z,1.5
2018-03-27T12:44:18.520Z,1.1
2018-03-27T12:46:19.038Z,2
2018-03-27T12:48:18.778Z,2.3
2018-03-27T12:50:18.536Z,1.3
2018-03-27T12:52:19.292Z,1.3
2018-03-27T12:54:19.036Z,1.4
2018-03-27T12:56:19.326Z,1.3
2018-03-27T12:58:19.082Z,1.9
2018-03-27T13:00:18.845Z,1.7
2018-03-27T13:02:18.623Z,1.6
2018-03-27T13:04:19.379Z,1.3
2018-03-27T13:06:18.593Z,1.7
2018-03-27T13:08:19.330Z,1.6
2018-03-27T13:10:18.548Z,2.1
2018-03-27T13:12:19.307Z,1.9
2018-03-27T13:14:19.058Z,1.5
2018-03-27T13:16:18.608Z,1
2018-03-27T13:18:19.432Z,1.3
2018-03-27T13:20:19.213Z,1.6
2018-03-27T13:22:18.957Z,1.7
2018-03-27T13:24:18.706Z,1.4
2018-03-27T13:26:19.209Z,2.1
2018-03-27T13:28:18.965Z,1.7
2018-03-27T13:30:18.735Z,1.4
2018-03-27T13:32:19.558Z,1.4
2018-03-27T13:34:19.426Z,1.8
2018-03-27T13:36:19.087Z,1.5
2018-03-27T13:38:18.844Z,1.4
2018-03-27T13:40:19.067Z,1.4
2018-03-27T13:42:18.819Z,1.2
2018-03-27T13:44:18.566Z,1.3
2018-03-27T13:46:18.586Z,6.6
2018-03-27T13:48:19.340Z,2
2018-03-27T13:50:19.234Z,1.3
2018-03-27T13:52:19.000Z,1.2
2018-03-27T13:54:18.771Z,1.8
2018-03-27T13:56:18.884Z,1.7
2018-03-27T13:58:18.648Z,1.5
2018-03-27T14:00:19.424Z,1.9
2018-03-27T14:02:19.096Z,1.4
2018-03-27T14:04:18.854Z,1.4
2018-03-27T14:06:18.509Z,1.2
2018-03-27T14:08:19.253Z,1.3
2018-03-27T14:10:19.500Z,1.3
2018-03-27T14:12:19.256Z,1.2
2018-03-27T14:14:19.027Z,1.4
2018-03-27T14:16:19.042Z,1.2
2018-03-27T14:18:18.869Z,1.1
2018-03-27T14:20:18.778Z,1.4
2018-03-27T14:22:18.543Z,2
2018-03-27T14:24:19.305Z,2.4
2018-03-27T14:26:18.789Z,1.6
2018-03-27T14:28:18.539Z,1.4
2018-03-27T14:30:19.316Z,2.1
2018-03-27T14:32:19.056Z,2.1
2018-03-27T14:34:18.799Z,1.9
2018-03-27T14:36:18.798Z,1.6
2018-03-27T14:38:18.561Z,2.3
2018-03-27T14:40:18.854Z,2.1
2018-03-27T14:42:18.600Z,1.9
2018-03-27T14:44:19.345Z,1.8
2018-03-27T14:46:19.466Z,1.6
2018-03-27T14:48:19.201Z,1.8
2018-03-27T14:50:18.955Z,1.8
2018-03-27T14:52:18.714Z,2.4
2018-03-27T14:54:19.451Z,2.5
2018-03-27T14:56:18.949Z,2.9
2018-03-27T14:58:18.693Z,2.8
2018-03-27T15:00:19.480Z,2
2018-03-27T15:02:19.237Z,2.9
2018-03-27T15:04:19.017Z,3.2
2018-03-27T15:06:18.548Z,2.4
2018-03-27T15:08:19.318Z,2.4
2018-03-27T15:10:18.552Z,2.5
2018-03-27T15:12:19.320Z,2.9
2018-03-27T15:14:19.117Z,2.1
2018-03-27T15:16:18.666Z,2.4
2018-03-27T15:18:19.504Z,2.1
2018-03-27T15:20:19.329Z,2.3
2018-03-27T15:22:19.185Z,2.2
2018-03-27T15:24:18.943Z,2.6
2018-03-27T15:26:18.518Z,2.4
2018-03-27T15:28:19.265Z,1.9
2018-03-27T15:30:19.040Z,1.8
2018-03-27T15:32:18.797Z,2.4
2018-03-27T15:34:18.550Z,2
2018-03-27T15:36:19.092Z,2
2018-03-27T15:38:18.851Z,2.4
2018-03-27T15:40:19.065Z,3
2018-03-27T15:42:18.830Z,2.9
2018-03-27T15:44:18.586Z,2.5
2018-03-27T15:46:19.072Z,3.4
2018-03-27T15:48:18.832Z,3
2018-03-27T15:50:18.617Z,2.3
2018-03-27T15:52:19.365Z,3.3
2018-03-27T15:54:19.133Z,2.4
2018-03-27T15:56:19.149Z,2.8
2018-03-27T15:58:18.927Z,3.2
2018-03-27T16:00:18.702Z,3.3
2018-03-27T16:02:19.460Z,2.4
2018-03-27T16:04:19.208Z,2.8
2018-03-27T16:06:18.678Z,2.9
2018-03-27T16:08:19.433Z,3.1
2018-03-27T16:10:18.675Z,3.8
2018-03-27T16:12:19.446Z,2.2
2018-03-27T16:14:19.206Z,2.2
2018-03-27T16:16:19.232Z,2.5
2018-03-27T16:18:19.115Z,2.9
2018-03-27T16:20:18.958Z,3.1
2018-03-27T16:22:18.674Z,2.7
2018-03-27T16:24:19.402Z,2.5
2018-03-27T16:26:18.901Z,3.4
2018-03-27T16:28:18.635Z,2.7
2018-03-27T16:30:19.386Z,3.1
2018-03-27T16:32:19.097Z,3.5
2018-03-27T16:34:18.813Z,2.6
2018-03-27T16:36:19.371Z,3.2
2018-03-27T16:38:19.088Z,2.1
2018-03-27T16:40:19.264Z,2.9
2018-03-27T16:42:18.980Z,3.6
2018-03-27T16:44:18.699Z,3.5
2018-03-27T16:46:19.074Z,3.3
2018-03-27T16:48:18.802Z,3.7
2018-03-27T16:50:18.534Z,2.8
2018-03-27T16:52:19.247Z,3.6
2018-03-27T16:54:18.966Z,3.1
2018-03-27T16:56:19.429Z,3.1
2018-03-27T16:58:19.163Z,3.1
2018-03-27T17:00:18.923Z,2.3
2018-03-27T17:02:18.649Z,3.2
2018-03-27T17:04:19.373Z,2.8
2018-03-27T17:06:18.787Z,3.2
2018-03-27T17:08:18.507Z,2.7
2018-03-27T17:10:18.684Z,3.4
2018-03-27T17:12:19.442Z,2.3
2018-03-27T17:14:19.162Z,3.2
2018-03-27T17:16:19.071Z,3.1
2018-03-27T17:18:18.850Z,2.8
2018-03-27T17:20:18.592Z,3.2
2018-03-27T17:22:19.305Z,2.3
2018-03-27T17:24:19.004Z,2.3
2018-03-27T17:26:19.379Z,3
2018-03-27T17:28:19.088Z,3.3
2018-03-27T17:30:18.826Z,2.5
2018-03-27T17:32:18.543Z,3.2
2018-03-27T17:34:19.262Z,2.3
2018-03-27T17:36:19.235Z,2.9
2018-03-27T17:38:18.951Z,2.7
2018-03-27T17:40:19.096Z,3.1
2018-03-27T17:42:18.804Z,2.5
2018-03-27T17:44:18.530Z,2.6
2018-03-27T17:46:18.453Z,3.3
2018-03-27T17:48:19.173Z,3.5
2018-03-27T17:50:18.972Z,3.5
2018-03-27T17:52:18.738Z,2.9
2018-03-27T17:54:18.454Z,2.8
2018-03-27T17:56:18.582Z,2.9
2018-03-27T17:58:19.284Z,3
2018-03-27T18:00:19.073Z,3.4
2018-03-27T18:02:18.780Z,2.6
2018-03-27T18:04:18.508Z,3.5
2018-03-27T18:06:18.876Z,2.6
2018-03-27T18:08:18.600Z,3.2
2018-03-27T18:10:18.749Z,3.6
2018-03-27T18:12:18.450Z,3.1
2018-03-27T18:14:19.154Z,2.7
2018-03-27T18:16:18.535Z,2.5
2018-03-27T18:18:19.313Z,2.5
2018-03-27T18:20:19.053Z,3.2
2018-03-27T18:22:18.759Z,3.2
2018-03-27T18:24:18.472Z,3.3
2018-03-27T18:26:19.374Z,3.2
2018-03-27T18:28:19.084Z,2.7
2018-03-27T18:30:18.821Z,2.7
2018-03-27T18:32:19.243Z,3.3
2018-03-27T18:34:18.957Z,3.4
2018-03-27T18:36:19.385Z,3.4
2018-03-27T18:38:19.102Z,2.6
2018-03-27T18:40:19.252Z,3.2
2018-03-27T18:42:18.965Z,2.9
2018-03-27T18:44:18.681Z,2.8
2018-03-27T18:46:18.609Z,2.9
2018-03-27T18:48:19.310Z,2.2
2018-03-27T18:50:19.091Z,2.8
2018-03-27T18:52:18.800Z,2.9
2018-03-27T18:54:18.558Z,3.5
2018-03-27T18:56:18.466Z,2.7
2018-03-27T18:58:19.182Z,3.7
2018-03-27T19:00:18.915Z,2.8
2018-03-27T19:02:18.622Z,2.4
2018-03-27T19:04:19.327Z,2.9
2018-03-27T19:06:19.253Z,2.5
2018-03-27T19:08:18.963Z,2.9
2018-03-27T19:10:19.103Z,2.9
2018-03-27T19:12:18.793Z,2.6
2018-03-27T19:14:18.489Z,2.5
2018-03-27T19:16:18.900Z,3.8
2018-03-27T19:18:18.719Z,4.2
2018-03-27T19:20:19.456Z,2.7
2018-03-27T19:22:19.166Z,3.1
2018-03-27T19:24:18.884Z,3.2
2018-03-27T19:26:19.275Z,3.7
2018-03-27T19:28:18.980Z,3.2
2018-03-27T19:30:18.729Z,2.4
2018-03-27T19:32:19.140Z,3.4
2018-03-27T19:34:18.844Z,3
2018-03-27T19:36:18.752Z,3.2
2018-03-27T19:38:18.447Z,3.5
2018-03-27T19:40:18.607Z,3.4
2018-03-27T19:42:19.312Z,3.1
2018-03-27T19:44:19.021Z,2.9
2018-03-27T19:46:19.428Z,3.2
2018-03-27T19:48:19.134Z,3.4
2018-03-27T19:50:18.870Z,2.7
2018-03-27T19:52:18.592Z,3.5
2018-03-27T19:54:19.302Z,3.1
2018-03-27T19:56:18.680Z,3.5
2018-03-27T19:58:19.386Z,3.5
2018-03-27T20:00:19.121Z,3.3
2018-03-27T20:02:18.848Z,4.2
2018-03-27T20:04:18.554Z,3.3
2018-03-27T20:06:18.916Z,3.4
2018-03-27T20:08:18.632Z,3.5
2018-03-27T20:10:18.780Z,3.5
2018-03-27T20:12:18.484Z,3.7
2018-03-27T20:14:19.188Z,3.9
2018-03-27T20:16:19.099Z,3.3
2018-03-27T20:18:18.868Z,3.7
2018-03-27T20:20:18.612Z,3.7
2018-03-27T20:22:19.318Z,3.4
2018-03-27T20:24:19.039Z,3.3
2018-03-27T20:26:19.424Z,4
2018-03-27T20:28:19.129Z,4
2018-03-27T20:30:18.879Z,2.9
2018-03-27T20:32:18.581Z,3.2
2018-03-27T20:34:19.282Z,3.2
2018-03-27T20:36:18.696Z,2.8
2018-03-27T20:38:19.401Z,3.6
2018-03-27T20:40:18.535Z,3.7
2018-03-27T20:42:19.235Z,3.4
2018-03-27T20:44:18.937Z,2.7
2018-03-27T20:46:19.308Z,2.8
2018-03-27T20:48:19.004Z,3.7
2018-03-27T20:50:18.724Z,3
2018-03-27T20:52:19.428Z,4.5
2018-03-27T20:54:19.136Z,3.5
2018-03-27T20:56:18.529Z,3
2018-03-27T20:58:19.237Z,3
2018-03-27T21:00:18.965Z,3.6
2018-03-27T21:02:18.669Z,2.6
2018-03-27T21:04:19.379Z,3.5
2018-03-27T21:06:18.748Z,2.8
2018-03-27T21:08:18.440Z,4.2
2018-03-27T21:10:18.566Z,2.8
2018-03-27T21:12:19.255Z,3.6
2018-03-27T21:14:18.955Z,3
2018-03-27T21:16:18.865Z,2.5
2018-03-27T21:18:18.636Z,3.1
2018-03-27T21:20:19.368Z,2.8
2018-03-27T21:22:19.065Z,2.5
2018-03-27T21:24:18.757Z,2.9
2018-03-27T21:26:19.192Z,2.3
2018-03-27T21:28:18.891Z,3.8
2018-03-27T21:30:18.627Z,3.1
2018-03-27T21:32:19.315Z,3
2018-03-27T21:34:19.004Z,2.4
2018-03-27T21:36:18.506Z,2.9
2018-03-27T21:38:19.215Z,3.2
2018-03-27T21:40:19.367Z,2.8
2018-03-27T21:42:19.060Z,3.9
2018-03-27T21:44:18.757Z,2.3
2018-03-27T21:46:19.112Z,3
2018-03-27T21:48:18.801Z,3.2
2018-03-27T21:50:18.535Z,2.8
2018-03-27T21:52:19.238Z,2.2
2018-03-27T21:54:18.964Z,2.3
2018-03-27T21:56:18.521Z,3
2018-03-27T21:58:19.241Z,2.5
2018-03-27T22:00:19.038Z,2.4
2018-03-27T22:02:18.729Z,3
2018-03-27T22:04:19.426Z,2.8
2018-03-27T22:06:18.804Z,2.6
2018-03-27T22:08:18.506Z,2.6
2018-03-27T22:10:18.632Z,3.3
2018-03-27T22:12:19.341Z,2.1
2018-03-27T22:14:19.047Z,3.1
2018-03-27T22:16:19.394Z,3.3
2018-03-27T22:18:19.149Z,3.9
2018-03-27T22:20:18.879Z,2.4
2018-03-27T22:22:18.579Z,3
2018-03-27T22:24:19.271Z,3.5
2018-03-27T22:26:18.623Z,2.8
2018-03-27T22:28:19.311Z,3.2
2018-03-27T22:30:19.014Z,3.5
2018-03-27T22:32:18.682Z,3.5
2018-03-27T22:34:19.352Z,2.9
2018-03-27T22:36:18.650Z,3.3
2018-03-27T22:38:19.323Z,2.8
2018-03-27T22:40:19.455Z,2.5
2018-03-27T22:42:19.126Z,3.5
2018-03-27T22:44:18.812Z,3.2
2018-03-27T22:46:18.610Z,3
2018-03-27T22:48:19.267Z,3.3
2018-03-27T22:50:18.978Z,2.3
2018-03-27T22:52:18.647Z,2.9
2018-03-27T22:54:19.318Z,3.1
2018-03-27T22:56:18.596Z,3.2
2018-03-27T22:58:19.265Z,3.1
2018-03-27T23:00:18.968Z,3.5
2018-03-27T23:02:18.634Z,2.2
2018-03-27T23:04:19.305Z,2.8
2018-03-27T23:06:18.570Z,2.5
2018-03-27T23:08:19.233Z,3.3
2018-03-27T23:10:19.309Z,2.2
2018-03-27T23:12:18.964Z,3
2018-03-27T23:14:18.627Z,2.6
2018-03-27T23:16:18.431Z,3
2018-03-27T23:18:19.149Z,3.2
2018-03-27T23:20:18.838Z,2.7
2018-03-27T23:22:18.514Z,3.1
2018-03-27T23:24:19.178Z,3
2018-03-27T23:26:18.464Z,2.7
2018-03-27T23:28:19.126Z,2.8
2018-03-27T23:30:18.804Z,2.4
2018-03-27T23:32:18.471Z,3
2018-03-27T23:34:19.140Z,3.5
2018-03-27T23:36:18.462Z,3.1
2018-03-27T23:38:19.128Z,3.4
2018-03-27T23:40:19.197Z,3.3
2018-03-27T23:42:18.861Z,3.3
2018-03-27T23:44:18.526Z,3
2018-03-27T23:46:18.814Z,2.4
2018-03-27T23:48:18.479Z,3.2
2018-03-27T23:50:19.176Z,2.5
2018-03-27T23:52:18.839Z,2.4
2018-03-27T23:54:18.502Z,3.4
2018-03-27T23:56:18.768Z,2.6
2018-03-27T23:58:18.425Z,2.1
